Wardner, Idaho
Current Conditions -  °F | °C
As of 12:53 PM on Thursday 27 Nov 2014 (Local Time) from KMLP Reporting Station
Light Rain Light Rain  
Wind Chill: 28°   Ceiling: 2800
Heat Index: 36°   Visibility: 9mi
Dew Point: 34°   Wind: 12mph
Humidity: 93%   Direction: 220°SW
Pressure: 29.89"   Gusts: 22mph
Location:  47.7187°N, 116.087°W
Report Text: KMLP 272053Z AUTO 22010G19KT 9SM -RA OVC028 02/01 A2989 RMK AO2 PK WND 22026/2002 SLP086 P0001 60003 T00220011 56010
Loading
Personal Weather Stations






























Interactive Weather Map New forecast layout! Learn more

10-Day Weather Forecast

Advertisements
Track Severe Weather on mobile